Time;durP1;ratioP1;P1;durP2;ratioP2;P2;SDS_P1;SDS_P2;PMS_P1;PMS_P2;Temp;Humidity;BMP_temperature;BMP_pressure;BME280_temperature;BME280_humidity;BME280_pressure;Samples;Min_cycle;Max_cycle;Signal;HPM_P1;HPM_P2
2021/09/13 00:02:16;;;;;;;8.30;4.40;;;;;;;;;;5076005;28;20266;-75
2021/09/13 00:04:42;;;;;;;7.10;4.87;;;;;;;;;;5075995;28;20255;-75
2021/09/13 00:07:09;;;;;;;9.48;4.95;;;;;;;;;;5075857;28;20707;-76
2021/09/13 00:09:35;;;;;;;8.75;5.35;;;;;;;;;;5076107;28;20048;-75
2021/09/13 00:12:00;;;;;;;8.02;5.07;;;;;;;;;;5074876;28;20063;-75
2021/09/13 00:14:25;;;;;;;7.80;4.45;;;;;;;;;;5075929;28;20100;-75
2021/09/13 00:16:50;;;;;;;7.97;5.38;;;;;;;;;;5075834;28;20017;-75
2021/09/13 00:19:16;;;;;;;6.53;4.55;;;;;;;;;;5058477;28;20020;-75
2021/09/13 00:21:41;;;;;;;5.68;5.07;;;;;;;;;;5074957;28;20032;-76
2021/09/13 00:24:06;;;;;;;5.13;4.63;;;;;;;;;;5075820;28;20017;-76
2021/09/13 00:26:32;;;;;;;9.73;4.68;;;;;;;;;;5075853;28;20266;-75
2021/09/13 00:28:57;;;;;;;6.30;4.82;;;;;;;;;;5072909;28;20033;-75
2021/09/13 00:31:22;;;;;;;6.23;4.30;;;;;;;;;;5074930;28;20341;-75
2021/09/13 00:33:50;;;;;;;25.38;5.55;;;;;;;;;;5074301;28;20273;-75
2021/09/13 00:36:15;;;;;;;7.45;4.93;;;;;;;;;;5075431;28;20381;-75
2021/09/13 00:38:40;;;;;;;7.50;5.05;;;;;;;;;;5072726;28;20016;-74
2021/09/13 00:41:06;;;;;;;6.60;4.90;;;;;;;;;;5075332;28;20009;-75
2021/09/13 00:43:31;;;;;;;7.90;5.35;;;;;;;;;;5075359;28;20504;-75
2021/09/13 00:45:57;;;;;;;6.10;4.95;;;;;;;;;;5073089;28;20004;-74
2021/09/13 00:48:22;;;;;;;7.97;5.20;;;;;;;;;;5074604;28;20028;-74
2021/09/13 00:50:52;;;;;;;12.00;5.10;;;;;;;;;;5075059;28;20046;-75
2021/09/13 00:53:17;;;;;;;8.55;5.10;;;;;;;;;;5074588;28;20024;-74
2021/09/13 00:55:43;;;;;;;8.07;5.30;;;;;;;;;;5075271;28;20463;-75
2021/09/13 00:58:10;;;;;;;8.80;5.20;;;;;;;;;;5071862;28;20479;-74
2021/09/13 01:00:35;;;;;;;7.25;5.22;;;;;;;;;;5071725;28;20322;-74
2021/09/13 01:03:01;;;;;;;10.23;4.53;;;;;;;;;;5074136;28;20055;-74
2021/09/13 01:05:26;;;;;;;8.93;5.00;;;;;;;;;;5074398;28;20016;-74
2021/09/13 01:07:51;;;;;;;7.33;5.10;;;;;;;;;;5075087;28;20016;-75
2021/09/13 01:10:17;;;;;;;8.25;5.20;;;;;;;;;;5074350;28;20577;-74
2021/09/13 01:12:42;;;;;;;7.63;4.90;;;;;;;;;;5074678;28;20095;-75
2021/09/13 01:15:08;;;;;;;8.75;4.97;;;;;;;;;;5073937;28;20453;-75
2021/09/13 01:17:33;;;;;;;9.75;5.07;;;;;;;;;;5074519;28;20017;-75
2021/09/13 01:19:58;;;;;;;6.67;4.80;;;;;;;;;;5074050;28;20020;-75
2021/09/13 01:22:25;;;;;;;8.43;4.53;;;;;;;;;;5074715;28;20270;-76
2021/09/13 01:24:55;;;;;;;7.10;4.43;;;;;;;;;;5074445;28;20068;-75
2021/09/13 01:27:22;;;;;;;7.65;4.30;;;;;;;;;;5074311;28;20024;-75
2021/09/13 01:29:48;;;;;;;7.57;4.70;;;;;;;;;;5072867;28;20020;-75
2021/09/13 01:32:13;;;;;;;7.43;4.38;;;;;;;;;;5073806;28;20033;-75
2021/09/13 01:34:38;;;;;;;10.80;5.00;;;;;;;;;;5071791;28;20024;-75
2021/09/13 01:37:03;;;;;;;7.57;4.70;;;;;;;;;;5073612;28;20267;-75
2021/09/13 01:39:29;;;;;;;6.35;4.18;;;;;;;;;;5073267;28;20707;-75
2021/09/13 01:41:54;;;;;;;8.20;4.68;;;;;;;;;;5072088;28;20016;-75
2021/09/13 01:44:19;;;;;;;9.90;4.97;;;;;;;;;;5074027;28;20052;-75
2021/09/13 01:46:45;;;;;;;13.57;4.70;;;;;;;;;;5072147;28;20281;-75
2021/09/13 01:49:11;;;;;;;11.75;4.63;;;;;;;;;;5073699;28;20054;-75
2021/09/13 01:51:37;;;;;;;9.90;4.82;;;;;;;;;;5073784;28;20452;-75
2021/09/13 01:54:03;;;;;;;7.13;4.63;;;;;;;;;;5074214;28;20028;-74
2021/09/13 01:56:30;;;;;;;10.23;4.63;;;;;;;;;;5073709;28;20060;-75
2021/09/13 01:58:58;;;;;;;9.60;5.35;;;;;;;;;;5070160;28;20024;-75
2021/09/13 02:01:23;;;;;;;9.90;5.18;;;;;;;;;;5072880;28;20465;-75
2021/09/13 02:03:48;;;;;;;7.97;4.80;;;;;;;;;;5073565;28;20043;-74
2021/09/13 02:06:14;;;;;;;9.17;5.37;;;;;;;;;;5071413;28;20020;-76
2021/09/13 02:08:41;;;;;;;9.60;4.93;;;;;;;;;;5073728;28;20611;-75
2021/09/13 02:11:07;;;;;;;11.02;4.78;;;;;;;;;;5073560;28;20059;-74
2021/09/13 02:13:32;;;;;;;7.95;5.20;;;;;;;;;;5073413;28;20377;-75
2021/09/13 02:15:58;;;;;;;7.93;5.30;;;;;;;;;;5073827;28;20349;-75
2021/09/13 02:18:25;;;;;;;8.40;5.15;;;;;;;;;;5073840;28;20017;-75
2021/09/13 02:20:51;;;;;;;6.50;4.70;;;;;;;;;;5071548;28;20408;-75
2021/09/13 02:23:16;;;;;;;8.88;5.30;;;;;;;;;;5073440;28;20100;-75
2021/09/13 02:25:41;;;;;;;9.45;4.88;;;;;;;;;;5073660;28;20345;-75
2021/09/13 02:28:07;;;;;;;7.25;4.65;;;;;;;;;;5073661;28;20027;-75
2021/09/13 02:30:34;;;;;;;7.35;4.80;;;;;;;;;;5072803;28;20029;-74
2021/09/13 02:32:59;;;;;;;11.35;6.03;;;;;;;;;;5072982;28;20092;-74
2021/09/13 02:35:24;;;;;;;6.70;5.47;;;;;;;;;;5073380;28;20063;-74
2021/09/13 02:37:50;;;;;;;8.40;5.18;;;;;;;;;;5073548;28;20029;-75
2021/09/13 02:40:15;;;;;;;7.97;4.85;;;;;;;;;;5063886;28;20041;-75
2021/09/13 02:42:41;;;;;;;6.28;4.57;;;;;;;;;;5053543;28;20438;-75
2021/09/13 02:45:08;;;;;;;10.55;5.00;;;;;;;;;;5053580;28;20497;-75
2021/09/13 02:47:34;;;;;;;7.47;4.88;;;;;;;;;;5053595;28;20017;-75
2021/09/13 02:50:01;;;;;;;8.43;4.88;;;;;;;;;;5053019;28;20035;-75
2021/09/13 02:52:29;;;;;;;9.02;5.45;;;;;;;;;;5055648;28;20468;-74
2021/09/13 02:54:54;;;;;;;8.13;5.60;;;;;;;;;;5057622;28;20016;-75
2021/09/13 02:57:19;;;;;;;6.57;4.90;;;;;;;;;;5057238;28;20025;-75
2021/09/13 02:59:45;;;;;;;6.63;4.77;;;;;;;;;;5044177;28;20624;-74
2021/09/13 03:02:12;;;;;;;6.68;4.90;;;;;;;;;;5077106;28;20251;-75
2021/09/13 03:04:38;;;;;;;6.85;4.97;;;;;;;;;;5076732;28;20024;-76
2021/09/13 03:07:03;;;;;;;9.70;5.60;;;;;;;;;;5076910;28;20360;-75
2021/09/13 03:09:28;;;;;;;8.67;5.07;;;;;;;;;;5077042;28;20290;-75
2021/09/13 03:11:53;;;;;;;6.82;4.97;;;;;;;;;;5075613;28;20255;-75
2021/09/13 03:14:19;;;;;;;7.50;5.65;;;;;;;;;;5073246;28;20021;-75
2021/09/13 03:16:44;;;;;;;6.80;5.03;;;;;;;;;;5076802;28;20082;-75
2021/09/13 03:19:09;;;;;;;10.07;6.05;;;;;;;;;;5059318;28;20316;-74
2021/09/13 03:21:34;;;;;;;9.90;5.25;;;;;;;;;;5075964;28;20032;-75
2021/09/13 03:23:59;;;;;;;7.67;5.03;;;;;;;;;;5076920;28;20028;-74
2021/09/13 03:26:25;;;;;;;9.47;4.93;;;;;;;;;;5076776;28;20350;-74
2021/09/13 03:28:50;;;;;;;7.65;5.53;;;;;;;;;;5069265;28;20275;-74
2021/09/13 03:31:15;;;;;;;7.22;4.60;;;;;;;;;;5073947;28;20035;-75
2021/09/13 03:33:40;;;;;;;9.43;5.40;;;;;;;;;;5075058;28;20025;-74
2021/09/13 03:36:06;;;;;;;6.30;4.90;;;;;;;;;;5076422;28;20016;-74
2021/09/13 03:38:32;;;;;;;7.25;4.93;;;;;;;;;;5075972;28;20086;-75
2021/09/13 03:41:00;;;;;;;7.97;5.05;;;;;;;;;;5075923;28;20105;-75
2021/09/13 03:43:27;;;;;;;5.75;5.07;;;;;;;;;;5076284;28;20016;-75
2021/09/13 03:45:54;;;;;;;9.50;5.47;;;;;;;;;;5075747;28;20154;-75
2021/09/13 03:48:20;;;;;;;6.57;4.80;;;;;;;;;;5074881;28;20025;-75
2021/09/13 03:50:46;;;;;;;5.30;4.80;;;;;;;;;;5076115;28;20039;-75
2021/09/13 03:53:11;;;;;;;7.10;5.10;;;;;;;;;;5076430;28;20348;-75
2021/09/13 03:55:38;;;;;;;9.50;5.17;;;;;;;;;;5058937;28;20269;-75
2021/09/13 03:58:04;;;;;;;5.78;4.90;;;;;;;;;;5073179;28;20267;-75
2021/09/13 04:00:29;;;;;;;9.02;5.32;;;;;;;;;;5075776;28;20044;-75
2021/09/13 04:02:54;;;;;;;8.63;5.00;;;;;;;;;;5057009;28;20051;-75
2021/09/13 04:05:22;;;;;;;5.45;4.50;;;;;;;;;;5075851;28;20242;-75
2021/09/13 04:12:58;;;;;;;5.40;4.90;;;;;;;;;;5056417;28;20021;-75
2021/09/13 04:15:23;;;;;;;6.80;4.70;;;;;;;;;;5063741;28;20020;-75
2021/09/13 04:17:51;;;;;;;7.63;4.70;;;;;;;;;;5076065;28;20666;-75
2021/09/13 04:20:16;;;;;;;6.95;5.05;;;;;;;;;;5075964;28;20102;-74
2021/09/13 04:22:41;;;;;;;9.27;5.00;;;;;;;;;;5075663;28;20056;-75
2021/09/13 04:25:07;;;;;;;5.72;4.85;;;;;;;;;;5075676;28;20390;-75
2021/09/13 04:27:32;;;;;;;7.18;4.93;;;;;;;;;;5076096;28;20028;-75
2021/09/13 04:29:58;;;;;;;8.05;5.55;;;;;;;;;;5075438;28;20024;-75
2021/09/13 04:32:23;;;;;;;9.32;5.43;;;;;;;;;;5075684;28;20020;-74
2021/09/13 04:34:48;;;;;;;7.87;5.57;;;;;;;;;;5074983;28;20036;-74
2021/09/13 04:37:13;;;;;;;6.70;5.20;;;;;;;;;;5075320;28;20565;-74
2021/09/13 04:39:41;;;;;;;5.97;5.07;;;;;;;;;;5057016;28;20086;-75
2021/09/13 04:42:08;;;;;;;7.97;5.30;;;;;;;;;;5070289;28;20400;-74
2021/09/13 04:44:33;;;;;;;10.02;5.32;;;;;;;;;;5075343;28;20029;-74
2021/09/13 04:47:01;;;;;;;6.25;5.00;;;;;;;;;;5069277;28;20033;-74
2021/09/13 04:49:26;;;;;;;7.38;5.25;;;;;;;;;;5056600;28;20476;-75
2021/09/13 04:51:52;;;;;;;9.32;5.03;;;;;;;;;;5074897;28;20025;-74
2021/09/13 04:54:17;;;;;;;6.20;4.80;;;;;;;;;;5075321;28;20078;-74
2021/09/13 04:56:43;;;;;;;6.03;5.43;;;;;;;;;;5049788;28;20331;-74
2021/09/13 04:59:10;;;;;;;6.65;5.40;;;;;;;;;;5039795;28;20727;-75
2021/09/13 05:01:38;;;;;;;7.45;5.50;;;;;;;;;;5055128;28;20044;-74
2021/09/13 05:04:04;;;;;;;7.68;6.00;;;;;;;;;;5054459;28;20108;-74
2021/09/13 05:06:29;;;;;;;8.95;5.97;;;;;;;;;;5055645;28;20096;-74
2021/09/13 05:08:55;;;;;;;9.48;5.75;;;;;;;;;;5057092;28;20460;-75
2021/09/13 05:11:20;;;;;;;8.98;6.80;;;;;;;;;;5037741;28;20159;-75
2021/09/13 05:13:45;;;;;;;9.40;6.32;;;;;;;;;;5054176;28;20135;-75
2021/09/13 05:16:10;;;;;;;7.05;5.93;;;;;;;;;;5054120;28;20024;-74
2021/09/13 05:18:35;;;;;;;9.50;5.83;;;;;;;;;;5054235;28;20107;-74
2021/09/13 05:21:01;;;;;;;11.23;7.30;;;;;;;;;;5054751;28;20696;-74
2021/09/13 05:23:29;;;;;;;11.50;7.18;;;;;;;;;;5053898;28;20577;-75
2021/09/13 05:25:54;;;;;;;9.32;6.20;;;;;;;;;;5036644;28;20021;-74
2021/09/13 05:28:19;;;;;;;9.02;7.15;;;;;;;;;;5054511;28;20028;-74
2021/09/13 05:30:44;;;;;;;11.40;6.17;;;;;;;;;;5048131;28;20033;-74
2021/09/13 05:33:12;;;;;;;8.50;6.53;;;;;;;;;;5044284;28;20251;-73
2021/09/13 05:35:37;;;;;;;9.27;6.95;;;;;;;;;;5046406;28;20025;-73
2021/09/13 05:38:05;;;;;;;9.52;7.03;;;;;;;;;;5044035;28;20523;-74
2021/09/13 05:40:33;;;;;;;7.55;6.40;;;;;;;;;;5052072;28;20021;-75
2021/09/13 05:43:02;;;;;;;9.52;7.20;;;;;;;;;;5047446;28;20028;-74
2021/09/13 05:45:27;;;;;;;9.52;6.88;;;;;;;;;;5051192;28;20103;-65
2021/09/13 05:47:52;;;;;;;8.02;6.78;;;;;;;;;;5047833;28;20109;-65
2021/09/13 05:50:18;;;;;;;9.80;7.13;;;;;;;;;;5050949;28;20100;-65
2021/09/13 05:52:43;;;;;;;10.07;7.20;;;;;;;;;;5032146;28;20070;-66
2021/09/13 05:55:08;;;;;;;9.83;6.73;;;;;;;;;;5054061;28;20021;-66
2021/09/13 05:57:34;;;;;;;10.15;7.90;;;;;;;;;;5039075;28;20661;-62
2021/09/13 05:59:59;;;;;;;8.18;6.65;;;;;;;;;;5057931;28;20048;-63
2021/09/13 06:02:24;;;;;;;12.35;7.25;;;;;;;;;;5070607;28;20448;-63
2021/09/13 06:04:49;;;;;;;9.30;7.50;;;;;;;;;;5073981;28;20456;-62
2021/09/13 06:07:14;;;;;;;12.63;7.93;;;;;;;;;;5074054;28;20024;-62
2021/09/13 06:09:40;;;;;;;14.68;8.85;;;;;;;;;;5073013;28;20111;-62
2021/09/13 06:12:09;;;;;;;11.18;8.98;;;;;;;;;;5073621;28;20032;-62
2021/09/13 06:14:36;;;;;;;20.20;11.82;;;;;;;;;;5072689;28;20445;-62
2021/09/13 06:17:02;;;;;;;19.88;11.43;;;;;;;;;;5073118;28;20396;-63
2021/09/13 06:19:27;;;;;;;20.67;10.35;;;;;;;;;;5056189;28;20016;-62
2021/09/13 06:21:52;;;;;;;18.55;10.30;;;;;;;;;;5073534;28;20039;-62
2021/09/13 06:24:17;;;;;;;16.77;10.37;;;;;;;;;;5070735;28;20389;-62
2021/09/13 06:26:45;;;;;;;20.50;11.50;;;;;;;;;;5064371;28;20695;-61
2021/09/13 06:29:10;;;;;;;25.60;13.80;;;;;;;;;;5070157;28;20373;-61
2021/09/13 06:31:36;;;;;;;26.08;17.50;;;;;;;;;;5072609;28;20147;-61
2021/09/13 06:34:01;;;;;;;29.40;18.33;;;;;;;;;;5070086;28;20138;-62
2021/09/13 06:36:27;;;;;;;41.78;24.42;;;;;;;;;;5073368;28;20804;-62
2021/09/13 06:38:55;;;;;;;53.03;28.02;;;;;;;;;;5072708;28;20016;-62
2021/09/13 06:41:20;;;;;;;53.97;28.13;;;;;;;;;;5065881;28;20408;-63
2021/09/13 06:43:48;;;;;;;54.33;30.17;;;;;;;;;;5067877;28;20096;-62
2021/09/13 06:46:25;;;;;;;55.00;29.58;;;;;;;;;;5072889;28;20263;-62
2021/09/13 06:48:53;;;;;;;51.70;30.27;;;;;;;;;;5061234;28;20033;-63
2021/09/13 06:51:22;;;;;;;59.70;33.80;;;;;;;;;;5066391;28;20020;-63
2021/09/13 06:53:49;;;;;;;62.58;34.42;;;;;;;;;;5070044;28;20016;-63
2021/09/13 06:56:15;;;;;;;63.03;35.72;;;;;;;;;;5056332;28;20345;-63
2021/09/13 06:58:40;;;;;;;56.38;35.75;;;;;;;;;;5060228;28;20100;-64
2021/09/13 07:01:08;;;;;;;64.53;34.28;;;;;;;;;;5066157;28;20044;-63
2021/09/13 07:03:34;;;;;;;63.55;37.80;;;;;;;;;;5069555;28;20025;-63
2021/09/13 07:05:59;;;;;;;60.42;37.08;;;;;;;;;;5073322;28;20036;-63
2021/09/13 07:08:24;;;;;;;67.03;37.00;;;;;;;;;;5072224;28;20049;-63
2021/09/13 07:10:49;;;;;;;59.67;34.35;;;;;;;;;;5073223;28;20305;-63
2021/09/13 07:13:15;;;;;;;53.15;31.42;;;;;;;;;;5070751;28;20029;-63
2021/09/13 07:15:40;;;;;;;55.95;32.10;;;;;;;;;;5071601;28;20027;-63
2021/09/13 07:18:08;;;;;;;54.47;32.20;;;;;;;;;;5072896;28;20036;-63
2021/09/13 07:20:33;;;;;;;61.50;32.35;;;;;;;;;;5069978;28;20047;-63
2021/09/13 07:22:58;;;;;;;52.20;32.03;;;;;;;;;;5073221;28;20453;-63
2021/09/13 07:25:23;;;;;;;64.80;36.92;;;;;;;;;;5072632;28;20017;-63
2021/09/13 07:27:51;;;;;;;70.25;36.97;;;;;;;;;;5072512;28;20036;-62
2021/09/13 07:30:17;;;;;;;65.15;39.35;;;;;;;;;;5072307;28;20012;-63
2021/09/13 07:32:42;;;;;;;59.83;37.30;;;;;;;;;;5073217;28;20326;-63
2021/09/13 07:35:08;;;;;;;68.80;39.88;;;;;;;;;;5070340;28;20129;-63
2021/09/13 07:37:34;;;;;;;65.28;41.05;;;;;;;;;;5055662;28;20027;-63
2021/09/13 07:40:00;;;;;;;64.03;39.92;;;;;;;;;;5075612;28;20042;-63
2021/09/13 07:42:25;;;;;;;69.97;39.63;;;;;;;;;;5076397;28;20032;-63
2021/09/13 07:44:50;;;;;;;58.75;38.33;;;;;;;;;;5056611;28;20032;-63
2021/09/13 07:47:19;;;;;;;65.35;41.30;;;;;;;;;;5055693;28;20020;-62
2021/09/13 07:49:44;;;;;;;69.25;43.35;;;;;;;;;;5073857;28;20017;-63
2021/09/13 07:52:09;;;;;;;65.13;40.90;;;;;;;;;;5056765;28;20029;-63
2021/09/13 07:54:35;;;;;;;68.73;40.53;;;;;;;;;;5064302;28;20475;-63
2021/09/13 07:57:00;;;;;;;64.30;41.83;;;;;;;;;;5073698;28;20255;-64
2021/09/13 07:59:25;;;;;;;63.03;41.05;;;;;;;;;;5072315;28;20266;-61
2021/09/13 08:01:50;;;;;;;61.15;40.08;;;;;;;;;;5075786;28;20032;-63
2021/09/13 08:04:16;;;;;;;63.67;39.27;;;;;;;;;;5061723;28;20059;-63
2021/09/13 08:06:41;;;;;;;67.40;42.23;;;;;;;;;;5067729;28;20658;-62
2021/09/13 08:09:07;;;;;;;61.77;39.83;;;;;;;;;;5075910;28;20662;-63
2021/09/13 08:11:33;;;;;;;62.00;40.80;;;;;;;;;;5066393;28;20596;-63
2021/09/13 08:13:58;;;;;;;71.22;41.97;;;;;;;;;;5067838;28;20016;-62
2021/09/13 08:16:23;;;;;;;67.32;40.72;;;;;;;;;;5056320;28;20024;-63
2021/09/13 08:18:50;;;;;;;62.15;42.35;;;;;;;;;;5068176;28;20025;-63
2021/09/13 08:21:17;;;;;;;58.72;38.97;;;;;;;;;;5067722;28;20017;-63
2021/09/13 08:23:44;;;;;;;62.85;41.42;;;;;;;;;;5069911;28;20025;-63
2021/09/13 08:26:09;;;;;;;61.53;40.90;;;;;;;;;;5075304;28;20404;-62
2021/09/13 08:28:34;;;;;;;60.60;40.93;;;;;;;;;;5075233;28;20024;-63
2021/09/13 08:31:00;;;;;;;65.47;41.08;;;;;;;;;;5075066;28;20353;-62
2021/09/13 08:33:25;;;;;;;64.57;41.28;;;;;;;;;;5071958;28;20094;-63
2021/09/13 08:35:53;;;;;;;62.25;41.75;;;;;;;;;;5076166;28;20024;-63
2021/09/13 08:38:19;;;;;;;61.83;39.45;;;;;;;;;;5071247;28;20510;-64
2021/09/13 08:40:44;;;;;;;59.72;39.15;;;;;;;;;;5074475;28;20032;-63
2021/09/13 08:43:09;;;;;;;63.17;40.77;;;;;;;;;;5075240;28;20552;-63
2021/09/13 08:48:21;;;;;;;60.58;42.90;;;;;;;;;;5075391;28;20020;-63
2021/09/13 08:53:14;;;;;;;59.20;41.35;;;;;;;;;;5069411;28;20025;-63
2021/09/13 08:55:39;;;;;;;60.63;40.65;;;;;;;;;;5069665;28;20016;-63
2021/09/13 08:58:06;;;;;;;65.75;43.35;;;;;;;;;;5056488;28;20023;-63
2021/09/13 09:00:35;;;;;;;64.95;45.55;;;;;;;;;;5069011;28;20083;-62
2021/09/13 09:03:03;;;;;;;60.00;41.22;;;;;;;;;;5070668;28;20357;-73
2021/09/13 09:05:28;;;;;;;68.13;42.60;;;;;;;;;;5074015;28;20025;-74
2021/09/13 09:07:56;;;;;;;58.78;41.72;;;;;;;;;;5068990;28;20456;-73
2021/09/13 09:10:26;;;;;;;59.97;39.53;;;;;;;;;;5074552;28;20024;-74
2021/09/13 09:12:58;;;;;;;57.95;38.85;;;;;;;;;;5074726;28;20017;-75
2021/09/13 09:15:26;;;;;;;59.10;38.63;;;;;;;;;;5069008;28;20024;-75
2021/09/13 09:17:55;;;;;;;55.72;40.53;;;;;;;;;;5072933;28;20032;-75
2021/09/13 09:20:21;;;;;;;53.45;38.47;;;;;;;;;;5060174;28;20035;-73
2021/09/13 09:22:47;;;;;;;58.03;37.33;;;;;;;;;;5071927;28;20025;-73
2021/09/13 09:25:27;;;;;;;56.33;38.60;;;;;;;;;;5070743;28;20032;-73
2021/09/13 09:28:00;;;;;;;48.95;37.45;;;;;;;;;;5070601;28;20742;-73
2021/09/13 09:30:39;;;;;;;54.45;36.92;;;;;;;;;;5072265;28;20115;-72
2021/09/13 09:33:11;;;;;;;56.45;38.00;;;;;;;;;;5062325;28;20020;-72
2021/09/13 09:35:44;;;;;;;52.42;37.20;;;;;;;;;;5073876;28;20086;-72
2021/09/13 09:38:29;;;;;;;53.00;36.35;;;;;;;;;;5073801;28;20425;-71
2021/09/13 09:40:58;;;;;;;55.67;36.38;;;;;;;;;;5047312;28;20024;-72
2021/09/13 09:43:23;;;;;;;46.33;32.95;;;;;;;;;;5071504;28;20020;-79
2021/09/13 09:45:48;;;;;;;47.88;33.15;;;;;;;;;;5073262;28;20032;-74
2021/09/13 09:48:14;;;;;;;48.43;33.07;;;;;;;;;;5073343;28;20020;-75
2021/09/13 09:50:39;;;;;;;43.80;31.60;;;;;;;;;;5053909;28;20376;-76
2021/09/13 09:53:14;;;;;;;51.47;31.93;;;;;;;;;;5073408;28;20255;-76
2021/09/13 09:55:39;;;;;;;51.37;30.80;;;;;;;;;;5073083;28;20262;-76
2021/09/13 09:58:05;;;;;;;42.90;30.52;;;;;;;;;;5073606;28;20337;-76
2021/09/13 10:00:30;;;;;;;44.40;30.83;;;;;;;;;;5073709;28;20044;-77
2021/09/13 10:02:56;;;;;;;42.25;29.50;;;;;;;;;;5071889;28;20059;-77
2021/09/13 10:05:22;;;;;;;37.20;27.27;;;;;;;;;;5073653;28;20028;-76
2021/09/13 10:07:48;;;;;;;41.15;29.70;;;;;;;;;;5053866;28;20104;-76
2021/09/13 10:10:13;;;;;;;43.20;29.42;;;;;;;;;;5055655;28;20111;-76
2021/09/13 10:12:39;;;;;;;48.30;27.70;;;;;;;;;;5073292;28;20059;-76
2021/09/13 10:15:05;;;;;;;41.33;27.63;;;;;;;;;;5056297;28;20463;-76
2021/09/13 10:17:32;;;;;;;40.22;27.73;;;;;;;;;;5056200;28;20079;-76
2021/09/13 10:20:00;;;;;;;37.85;26.17;;;;;;;;;;5060338;28;20469;-76
2021/09/13 10:22:27;;;;;;;35.38;25.33;;;;;;;;;;5056728;28;20051;-76
2021/09/13 10:24:53;;;;;;;34.88;21.10;;;;;;;;;;5063100;28;20020;-76
2021/09/13 10:30:29;;;;;;;32.80;21.90;;;;;;;;;;5032109;28;20114;-76
2021/09/13 10:33:15;;;;;;;31.40;19.92;;;;;;;;;;5073125;28;20016;-77
2021/09/13 10:35:56;;;;;;;24.00;17.85;;;;;;;;;;5072788;28;20012;-79
2021/09/13 10:38:51;;;;;;;28.10;17.13;;;;;;;;;;5068183;28;20060;-76
2021/09/13 10:41:34;;;;;;;26.00;16.63;;;;;;;;;;5053572;28;20037;-77
2021/09/13 10:44:03;;;;;;;34.03;18.80;;;;;;;;;;5073467;28;20027;-77
2021/09/13 10:46:47;;;;;;;25.08;17.85;;;;;;;;;;5070582;28;20032;-77
2021/09/13 10:49:12;;;;;;;24.02;16.73;;;;;;;;;;5073146;28;20035;-77
2021/09/13 10:51:38;;;;;;;29.37;18.23;;;;;;;;;;5073426;28;20025;-77
2021/09/13 10:54:03;;;;;;;24.20;16.97;;;;;;;;;;5067569;28;20060;-77
2021/09/13 10:56:28;;;;;;;24.30;18.33;;;;;;;;;;5073172;28;20039;-77
2021/09/13 10:58:54;;;;;;;24.03;16.57;;;;;;;;;;5065681;28;20453;-78
2021/09/13 11:01:23;;;;;;;28.02;14.85;;;;;;;;;;5069262;28;20512;-75
2021/09/13 11:04:23;;;;;;;;;;;;;;;;;;;;;
2021/09/13 11:06:48;;;;;;;22.40;15.05;;;;;;;;;;5035239;28;20376;-77
2021/09/13 11:09:15;;;;;;;22.63;14.35;;;;;;;;;;5038605;28;20112;-77
2021/09/13 11:11:43;;;;;;;20.30;14.45;;;;;;;;;;5040195;28;20404;-77
2021/09/13 11:14:10;;;;;;;20.15;12.90;;;;;;;;;;5073342;28;20104;-77
2021/09/13 11:16:56;;;;;;;17.13;13.05;;;;;;;;;;5075706;28;20021;-77
2021/09/13 11:19:21;;;;;;;;;;;;;;;;;;5062376;28;20039;-77
2021/09/13 11:21:48;;;;;;;15.43;10.90;;;;;;;;;;5043597;28;20003;-77
2021/09/13 11:24:14;;;;;;;15.93;10.52;;;;;;;;;;5074127;28;20534;-77
2021/09/13 11:26:43;;;;;;;16.25;9.73;;;;;;;;;;5057070;28;20104;-77
2021/09/13 11:29:15;;;;;;;15.55;10.02;;;;;;;;;;5056695;28;20059;-78
2021/09/13 11:31:40;;;;;;;15.00;11.23;;;;;;;;;;5074957;28;20017;-78
2021/09/13 11:34:26;;;;;;;11.53;8.13;;;;;;;;;;5066769;28;20017;-78
2021/09/13 11:36:52;;;;;;;9.32;6.90;;;;;;;;;;5056290;28;20025;-77
2021/09/13 11:39:17;;;;;;;10.40;7.25;;;;;;;;;;5066234;28;20096;-78
2021/09/13 11:41:52;;;;;;;8.70;6.40;;;;;;;;;;5076599;28;20082;-78
2021/09/13 11:44:17;;;;;;;10.55;7.63;;;;;;;;;;5076123;28;20017;-78
2021/09/13 11:46:50;;;;;;;12.00;6.50;;;;;;;;;;5076077;28;20425;-79
2021/09/13 11:49:21;;;;;;;10.32;6.38;;;;;;;;;;5057982;28;20013;-78
2021/09/13 11:51:59;;;;;;;10.57;7.20;;;;;;;;;;5057384;28;20073;-79
2021/09/13 11:54:25;;;;;;;8.55;6.35;;;;;;;;;;5073825;28;20398;-81
2021/09/13 11:56:50;;;;;;;9.20;6.03;;;;;;;;;;5068576;28;20113;-81
2021/09/13 11:59:22;;;;;;;8.30;5.38;;;;;;;;;;5072278;28;20048;-79
2021/09/13 12:02:00;;;;;;;10.60;5.72;;;;;;;;;;5075686;28;20473;-80
2021/09/13 12:04:26;;;;;;;9.60;5.07;;;;;;;;;;5074410;28;20036;-80
2021/09/13 12:07:10;;;;;;;7.97;4.72;;;;;;;;;;5065844;28;20035;-80
2021/09/13 12:10:02;;;;;;;10.63;5.15;;;;;;;;;;5056546;28;20021;-79
2021/09/13 12:12:31;;;;;;;10.35;5.80;;;;;;;;;;5066713;28;20483;-80
2021/09/13 12:15:00;;;;;;;6.85;4.57;;;;;;;;;;5075940;28;20020;-80
2021/09/13 12:17:34;;;;;;;6.88;4.50;;;;;;;;;;5070920;28;20013;-80
2021/09/13 12:20:15;;;;;;;7.57;4.70;;;;;;;;;;5058474;28;20823;-79
2021/09/13 12:22:41;;;;;;;6.30;4.47;;;;;;;;;;5072465;28;20330;-79
2021/09/13 12:25:14;;;;;;;9.23;4.65;;;;;;;;;;5064187;28;20087;-79
2021/09/13 12:27:49;;;;;;;9.50;4.50;;;;;;;;;;5072502;28;20032;-79
2021/09/13 12:30:25;;;;;;;7.93;4.75;;;;;;;;;;5071679;28;20024;-79
2021/09/13 12:32:51;;;;;;;8.55;5.07;;;;;;;;;;5075588;28;20024;-78
2021/09/13 12:35:19;;;;;;;11.68;5.10;;;;;;;;;;5075489;28;20414;-76
2021/09/13 12:37:51;;;;;;;7.90;4.55;;;;;;;;;;5075142;28;20107;-78
2021/09/13 12:40:17;;;;;;;6.65;4.63;;;;;;;;;;5075378;28;20441;-75
2021/09/13 12:42:54;;;;;;;8.05;4.38;;;;;;;;;;5072035;28;20028;-79
2021/09/13 12:45:26;;;;;;;8.50;4.82;;;;;;;;;;5074740;28;20032;-79
2021/09/13 12:47:53;;;;;;;5.88;3.95;;;;;;;;;;5065784;28;20013;-77
2021/09/13 12:50:34;;;;;;;6.28;4.18;;;;;;;;;;5070581;28;21787;-78
2021/09/13 12:53:00;;;;;;;7.32;3.88;;;;;;;;;;5071483;28;20374;-77
2021/09/13 12:55:26;;;;;;;7.38;4.00;;;;;;;;;;5066282;28;20021;-77
2021/09/13 12:57:51;;;;;;;7.45;4.60;;;;;;;;;;5067517;28;20027;-77
2021/09/13 13:00:17;;;;;;;5.78;3.78;;;;;;;;;;5067799;28;20052;-78
2021/09/13 13:02:45;;;;;;;7.70;4.10;;;;;;;;;;5068238;28;20032;-78
2021/09/13 13:05:32;;;;;;;7.82;3.70;;;;;;;;;;5069006;28;20024;-81
2021/09/13 13:08:00;;;;;;;7.43;4.55;;;;;;;;;;5072582;28;20024;-75
2021/09/13 13:10:28;;;;;;;5.53;3.80;;;;;;;;;;5072762;28;20087;-72
2021/09/13 13:12:57;;;;;;;5.55;3.90;;;;;;;;;;5073277;28;20017;-73
2021/09/13 13:15:22;;;;;;;6.70;4.43;;;;;;;;;;5073664;28;20020;-73
2021/09/13 13:17:48;;;;;;;8.18;4.20;;;;;;;;;;5071384;28;20017;-75
2021/09/13 13:20:15;;;;;;;7.05;4.38;;;;;;;;;;5073688;28;20105;-74
2021/09/13 13:22:40;;;;;;;9.38;5.00;;;;;;;;;;5056392;28;20024;-74
2021/09/13 13:25:08;;;;;;;8.10;4.32;;;;;;;;;;5064017;28;20029;-81
2021/09/13 13:27:33;;;;;;;5.70;4.10;;;;;;;;;;5037337;28;20035;-76
2021/09/13 13:30:00;;;;;;;10.43;4.30;;;;;;;;;;5063481;28;20024;-72
2021/09/13 13:32:25;;;;;;;4.35;3.35;;;;;;;;;;5062756;28;20552;-72
2021/09/13 13:34:50;;;;;;;5.87;4.10;;;;;;;;;;5070739;28;20027;-72
2021/09/13 13:37:16;;;;;;;9.37;5.00;;;;;;;;;;5073699;28;20035;-73
2021/09/13 13:39:41;;;;;;;6.77;5.03;;;;;;;;;;5072814;28;20343;-72
2021/09/13 13:42:06;;;;;;;7.33;4.93;;;;;;;;;;5069490;28;20267;-72
2021/09/13 13:44:31;;;;;;;6.72;5.00;;;;;;;;;;5072068;28;20305;-73
2021/09/13 13:46:58;;;;;;;9.40;4.83;;;;;;;;;;5072684;28;20016;-73
2021/09/13 13:49:23;;;;;;;9.30;5.93;;;;;;;;;;5067559;28;20507;-72
2021/09/13 13:51:48;;;;;;;8.50;4.70;;;;;;;;;;5066459;28;20024;-73
2021/09/13 13:54:13;;;;;;;8.87;4.90;;;;;;;;;;5073375;28;20334;-73
2021/09/13 13:56:38;;;;;;;7.15;4.80;;;;;;;;;;5072935;28;20073;-73
2021/09/13 13:59:06;;;;;;;7.57;4.50;;;;;;;;;;5069998;28;20039;-73
2021/09/13 14:01:33;;;;;;;8.57;5.50;;;;;;;;;;5034584;28;20117;-72
2021/09/13 14:04:00;;;;;;;12.07;5.30;;;;;;;;;;5034191;28;20013;-74
2021/09/13 14:06:26;;;;;;;7.18;4.90;;;;;;;;;;5034158;28;20083;-72
2021/09/13 14:08:51;;;;;;;10.50;4.57;;;;;;;;;;5047189;28;20339;-71
2021/09/13 14:11:16;;;;;;;7.38;4.50;;;;;;;;;;5052370;28;20279;-74
2021/09/13 14:13:41;;;;;;;9.53;4.67;;;;;;;;;;5052533;28;20096;-70
2021/09/13 14:16:07;;;;;;;6.77;4.80;;;;;;;;;;5048867;28;20354;-71
2021/09/13 14:18:33;;;;;;;7.60;4.65;;;;;;;;;;5052371;28;20031;-73
2021/09/13 14:20:58;;;;;;;7.07;4.40;;;;;;;;;;5053345;28;20029;-72
2021/09/13 14:23:28;;;;;;;5.77;4.10;;;;;;;;;;5052610;28;20079;-73
2021/09/13 14:25:53;;;;;;;9.32;4.05;;;;;;;;;;5053430;28;20258;-74
2021/09/13 14:28:21;;;;;;;5.80;4.13;;;;;;;;;;5053650;28;20021;-73
2021/09/13 14:30:46;;;;;;;7.95;4.05;;;;;;;;;;5053368;28;20283;-72
2021/09/13 14:33:14;;;;;;;9.63;3.83;;;;;;;;;;5049735;28;20079;-73
2021/09/13 14:35:39;;;;;;;6.38;3.75;;;;;;;;;;5052980;28;20025;-72
2021/09/13 14:38:04;;;;;;;8.27;4.43;;;;;;;;;;5051639;28;20020;-73
2021/09/13 14:40:30;;;;;;;7.80;3.45;;;;;;;;;;5051696;28;20032;-71
2021/09/13 14:42:55;;;;;;;6.37;4.00;;;;;;;;;;5052940;28;20115;-71
2021/09/13 14:45:20;;;;;;;5.77;3.77;;;;;;;;;;5049625;28;20311;-72
2021/09/13 14:47:47;;;;;;;5.40;3.50;;;;;;;;;;5052157;28;20056;-73